createdAt,value
2022-12-12T00:01:04.682Z,14.48
2022-12-12T00:03:33.031Z,13.00
2022-12-12T00:06:03.322Z,17.42
2022-12-12T00:08:31.450Z,15.35
2022-12-12T00:10:59.574Z,14.68
2022-12-12T00:13:27.631Z,17.85
2022-12-12T00:15:55.799Z,17.33
2022-12-12T00:18:25.227Z,13.52
2022-12-12T00:20:53.738Z,15.82
2022-12-12T00:23:21.769Z,17.02
2022-12-12T00:25:55.830Z,18.33
2022-12-12T00:28:23.966Z,16.17
2022-12-12T00:30:52.137Z,15.23
2022-12-12T00:33:20.787Z,16.50
2022-12-12T00:35:53.035Z,14.90
2022-12-12T00:38:22.528Z,15.20
2022-12-12T00:40:51.669Z,15.50
2022-12-12T00:43:19.691Z,18.05
2022-12-12T00:45:47.862Z,15.13
2022-12-12T00:48:15.903Z,15.73
2022-12-12T00:50:44.652Z,16.95
2022-12-12T00:53:14.715Z,15.93
2022-12-12T00:55:43.121Z,18.48
2022-12-12T00:58:11.579Z,17.58
2022-12-12T01:00:41.324Z,17.80
2022-12-12T01:03:09.678Z,19.27
2022-12-12T01:05:37.709Z,16.98
2022-12-12T01:08:05.918Z,17.30
2022-12-12T01:10:35.718Z,18.40
2022-12-12T01:13:04.712Z,18.15
2022-12-12T01:15:32.866Z,16.80
2022-12-12T01:18:02.131Z,20.30
2022-12-12T01:20:30.379Z,15.63
2022-12-12T01:22:58.463Z,18.77
2022-12-12T01:25:26.945Z,18.58
2022-12-12T01:27:56.534Z,17.80
2022-12-12T01:30:49.131Z,16.23
2022-12-12T01:33:17.289Z,19.05
2022-12-12T01:35:46.030Z,18.27
2022-12-12T01:38:14.121Z,19.73
2022-12-12T01:40:42.143Z,17.52
2022-12-12T01:43:14.449Z,17.40
2022-12-12T01:46:33.001Z,15.55
2022-12-12T01:49:04.807Z,16.10
2022-12-12T01:51:33.930Z,14.57
2022-12-12T01:54:07.700Z,18.05
2022-12-12T01:56:37.472Z,16.88
2022-12-12T01:59:10.189Z,18.80
2022-12-12T02:01:39.070Z,14.02
2022-12-12T02:04:09.456Z,14.93
2022-12-12T02:06:37.888Z,14.32
2022-12-12T02:09:10.347Z,15.43
2022-12-12T02:11:44.937Z,14.77
2022-12-12T02:14:15.980Z,14.50
2022-12-12T02:17:09.252Z,14.98
2022-12-12T02:20:27.324Z,13.98
2022-12-12T02:23:30.225Z,13.35
2022-12-12T02:26:17.732Z,14.77
2022-12-12T02:29:10.139Z,12.90
2022-12-12T02:31:44.186Z,13.95
2022-12-12T02:34:19.785Z,15.23
2022-12-12T02:36:58.055Z,14.82
2022-12-12T02:39:33.256Z,11.48
2022-12-12T02:42:06.759Z,16.73
2022-12-12T02:44:39.975Z,14.27
2022-12-12T02:47:13.632Z,16.13
2022-12-12T02:49:47.444Z,16.70
2022-12-12T02:52:17.313Z,17.80
2022-12-12T02:54:45.501Z,19.83
2022-12-12T02:57:16.534Z,17.50
2022-12-12T02:59:54.226Z,16.65
2022-12-12T03:03:28.418Z,17.50
2022-12-12T03:06:29.997Z,18.42
2022-12-12T03:09:08.771Z,16.27
2022-12-12T03:11:51.507Z,17.27
2022-12-12T03:14:27.294Z,17.77
2022-12-12T03:17:04.593Z,21.55
2022-12-12T03:19:40.451Z,17.95
2022-12-12T03:22:17.855Z,19.30
2022-12-12T03:24:52.005Z,19.70
2022-12-12T03:27:24.790Z,16.92
2022-12-12T03:29:56.882Z,20.27
2022-12-12T03:32:29.768Z,21.45
2022-12-12T03:35:01.311Z,20.67
2022-12-12T03:37:34.557Z,22.50
2022-12-12T03:40:08.977Z,18.48
2022-12-12T03:42:40.806Z,21.52
2022-12-12T03:45:15.017Z,14.85
2022-12-12T03:47:51.865Z,20.77
2022-12-12T03:50:22.562Z,13.75
2022-12-12T03:52:57.848Z,17.65
2022-12-12T03:55:31.870Z,16.52
2022-12-12T03:58:04.161Z,17.02
2022-12-12T04:00:37.199Z,17.45
2022-12-12T04:03:15.796Z,16.55
2022-12-12T04:06:02.195Z,19.98
2022-12-12T04:08:32.175Z,16.35
2022-12-12T04:11:24.048Z,17.13
2022-12-12T04:14:05.421Z,18.13
2022-12-12T04:16:37.268Z,21.35
2022-12-12T04:19:12.317Z,19.58
2022-12-12T04:22:07.756Z,19.95
2022-12-12T04:24:44.884Z,17.35
2022-12-12T04:27:19.488Z,17.02
2022-12-12T04:29:53.035Z,19.35
2022-12-12T04:32:25.971Z,21.00
2022-12-12T04:35:04.387Z,25.13
2022-12-12T04:37:37.108Z,16.35
2022-12-12T04:40:10.100Z,20.30
2022-12-12T04:42:43.216Z,22.73
2022-12-12T04:45:16.243Z,23.05
2022-12-12T04:47:48.177Z,26.30
2022-12-12T04:50:18.514Z,21.13
2022-12-12T04:52:50.031Z,19.75
2022-12-12T04:55:24.444Z,19.42
2022-12-12T04:57:54.765Z,17.80
2022-12-12T05:00:24.278Z,21.35
2022-12-12T05:02:58.704Z,19.58
2022-12-12T05:05:29.387Z,18.75
2022-12-12T05:08:04.028Z,20.08
2022-12-12T05:10:34.085Z,21.10
2022-12-12T05:13:03.391Z,19.80
2022-12-12T05:15:31.579Z,20.45
2022-12-12T05:18:03.936Z,15.63
2022-12-12T05:20:32.542Z,17.60
2022-12-12T05:23:00.911Z,20.00
2022-12-12T05:25:32.320Z,19.13
2022-12-12T05:28:02.138Z,15.02
2022-12-12T05:30:30.401Z,18.70
2022-12-12T05:32:58.504Z,16.83
2022-12-12T05:35:28.022Z,19.77
2022-12-12T05:37:56.542Z,14.80
2022-12-12T05:40:24.847Z,12.98
2022-12-12T05:42:53.803Z,12.07
2022-12-12T05:45:23.237Z,13.50
2022-12-12T05:47:52.583Z,18.00
2022-12-12T05:50:20.663Z,13.32
2022-12-12T05:52:49.499Z,15.88
2022-12-12T05:55:17.595Z,14.05
2022-12-12T05:57:45.677Z,14.10
2022-12-12T06:00:14.536Z,14.15
2022-12-12T06:02:43.994Z,14.75
2022-12-12T06:05:12.377Z,14.05
2022-12-12T06:07:40.654Z,13.77
2022-12-12T06:10:09.822Z,12.68
2022-12-12T06:12:37.941Z,18.40
2022-12-12T06:15:06.798Z,14.23
2022-12-12T06:17:34.903Z,15.85
2022-12-12T06:20:05.322Z,18.50
2022-12-12T06:22:34.896Z,13.40
2022-12-12T06:25:03.005Z,47.38
2022-12-12T06:27:30.981Z,20.50
2022-12-12T06:29:59.038Z,17.00
2022-12-12T06:32:27.083Z,16.90
2022-12-12T06:34:55.079Z,16.83
2022-12-12T06:37:24.591Z,18.55
2022-12-12T06:39:52.789Z,17.02
2022-12-12T06:42:20.964Z,16.40
2022-12-12T06:44:48.949Z,17.05
2022-12-12T06:47:17.090Z,14.88
2022-12-12T06:49:45.103Z,17.67
2022-12-12T06:52:13.217Z,14.55
2022-12-12T06:54:42.618Z,13.70
2022-12-12T06:57:10.701Z,15.13
2022-12-12T06:59:38.753Z,15.20
2022-12-12T07:02:07.523Z,16.30
2022-12-12T07:04:35.545Z,15.63
2022-12-12T07:07:03.678Z,13.70
2022-12-12T07:09:31.639Z,17.33
2022-12-12T07:12:01.537Z,14.57
2022-12-12T07:14:29.552Z,15.93
2022-12-12T07:16:57.995Z,16.58
2022-12-12T07:19:26.513Z,14.48
2022-12-12T07:21:54.505Z,15.80
2022-12-12T07:24:22.614Z,17.60
2022-12-12T07:26:50.731Z,17.88
2022-12-12T07:29:20.109Z,12.98
2022-12-12T07:31:51.587Z,16.65
2022-12-12T07:34:19.608Z,18.58
2022-12-12T07:36:47.669Z,13.15
2022-12-12T07:39:20.779Z,43.60
2022-12-12T07:41:49.423Z,63.83
2022-12-12T07:44:23.727Z,42.83
2022-12-12T07:46:51.793Z,35.58
2022-12-12T07:49:19.812Z,24.85
2022-12-12T07:51:49.460Z,29.25
2022-12-12T07:54:18.133Z,22.98
2022-12-12T07:56:46.195Z,23.33
2022-12-12T07:59:14.374Z,20.20
2022-12-12T08:01:43.888Z,16.58
2022-12-12T08:04:11.967Z,16.10
2022-12-12T08:06:40.126Z,16.08
2022-12-12T08:09:08.230Z,14.90
2022-12-12T08:11:36.403Z,16.40
2022-12-12T08:14:12.887Z,17.60
2022-12-12T08:16:42.769Z,17.80
2022-12-12T08:19:10.770Z,17.48
2022-12-12T08:21:38.899Z,27.02
2022-12-12T08:24:07.572Z,15.45
2022-12-12T08:26:35.698Z,14.45
2022-12-12T08:29:03.707Z,17.63
2022-12-12T08:31:32.441Z,16.77
2022-12-12T08:34:02.657Z,18.55
2022-12-12T08:36:32.788Z,15.10
2022-12-12T08:39:05.627Z,15.75
2022-12-12T08:41:34.753Z,19.83
2022-12-12T08:44:02.924Z,16.20
2022-12-12T08:46:31.314Z,18.50
2022-12-12T08:48:59.324Z,14.55
2022-12-12T08:51:28.821Z,12.60
2022-12-12T08:53:56.820Z,12.98
2022-12-12T08:56:25.677Z,13.23
2022-12-12T08:58:53.890Z,13.98
2022-12-12T09:01:23.834Z,12.70
2022-12-12T09:03:53.264Z,11.98
2022-12-12T09:06:22.259Z,17.38
2022-12-12T09:08:51.904Z,15.80
2022-12-12T09:11:20.594Z,13.93
2022-12-12T09:13:48.602Z,13.18
2022-12-12T09:16:16.996Z,12.70
2022-12-12T09:18:49.055Z,12.75
2022-12-12T09:21:17.969Z,15.77
2022-12-12T09:23:46.129Z,12.50
2022-12-12T09:26:15.981Z,14.57
2022-12-12T09:28:43.983Z,13.65
2022-12-12T09:31:13.591Z,15.30
2022-12-12T09:33:42.882Z,13.65
2022-12-12T09:36:11.875Z,13.15
2022-12-12T09:38:39.953Z,14.07
2022-12-12T09:41:16.280Z,11.43
2022-12-12T09:43:51.453Z,13.15
2022-12-12T09:46:29.476Z,11.73
2022-12-12T09:49:03.848Z,11.30
2022-12-12T09:51:32.114Z,10.95
2022-12-12T09:54:00.112Z,11.00
2022-12-12T09:56:37.274Z,14.90
2022-12-12T09:59:10.488Z,11.00
2022-12-12T10:01:41.607Z,12.95
2022-12-12T10:04:17.312Z,12.00
2022-12-12T10:06:50.291Z,13.85
2022-12-12T10:09:34.034Z,14.18
2022-12-12T10:12:08.400Z,11.68
2022-12-12T10:14:41.850Z,13.38
2022-12-12T10:17:15.384Z,13.93
2022-12-12T10:19:48.993Z,10.80
2022-12-12T10:22:24.804Z,14.07
2022-12-12T10:24:57.013Z,12.68
2022-12-12T10:27:26.489Z,11.40
2022-12-12T10:29:55.949Z,15.25
2022-12-12T10:32:38.067Z,13.77
2022-12-12T10:35:21.305Z,14.93
2022-12-12T10:38:07.192Z,13.52
2022-12-12T10:40:48.013Z,11.05
2022-12-12T10:43:22.437Z,12.45
2022-12-12T10:46:17.725Z,12.23
2022-12-12T10:48:48.858Z,10.60
2022-12-12T10:51:20.666Z,15.48
2022-12-12T10:53:48.864Z,7.88
2022-12-12T10:56:22.017Z,9.07
2022-12-12T10:58:56.478Z,12.02
2022-12-12T11:01:52.466Z,10.88
2022-12-12T11:04:16.754Z,7.20
2022-12-12T11:06:47.944Z,7.13
2022-12-12T11:09:20.877Z,8.10
2022-12-12T11:11:59.955Z,9.73
2022-12-12T11:14:34.909Z,10.27
2022-12-12T11:17:03.591Z,9.40
2022-12-12T11:19:39.530Z,11.35
2022-12-12T11:22:07.759Z,10.23
2022-12-12T11:24:45.070Z,11.20
2022-12-12T11:27:21.832Z,11.68
2022-12-12T11:29:53.638Z,9.05
2022-12-12T11:32:25.352Z,9.55
2022-12-12T11:34:56.812Z,11.55
2022-12-12T11:37:29.351Z,18.88
2022-12-12T11:39:58.549Z,9.95
2022-12-12T11:42:29.267Z,13.77
2022-12-12T11:45:04.763Z,12.57
2022-12-12T11:47:40.695Z,15.95
2022-12-12T11:50:21.402Z,17.10
2022-12-12T11:52:50.656Z,14.30
2022-12-12T11:55:30.252Z,13.80
2022-12-12T11:58:13.276Z,12.65
2022-12-12T12:00:52.571Z,14.07
2022-12-12T12:03:41.412Z,14.13
2022-12-12T12:06:23.958Z,17.65
2022-12-12T12:09:23.319Z,15.70
2022-12-12T12:11:58.516Z,16.50
2022-12-12T12:14:52.335Z,19.55
2022-12-12T12:17:29.560Z,87.60
2022-12-12T12:20:06.474Z,16.48
2022-12-12T12:22:45.625Z,17.35
2022-12-12T12:25:31.188Z,15.75
2022-12-12T12:28:10.719Z,15.07
2022-12-12T12:30:51.606Z,15.02
2022-12-12T12:33:41.844Z,12.10
2022-12-12T12:36:21.094Z,12.07
2022-12-12T12:39:05.672Z,10.13
2022-12-12T12:41:48.459Z,11.70
2022-12-12T12:44:31.506Z,12.43
2022-12-12T12:47:06.504Z,13.80
2022-12-12T12:49:40.964Z,12.57
2022-12-12T12:52:13.600Z,14.82
2022-12-12T12:54:43.526Z,14.98
2022-12-12T12:57:15.869Z,13.23
2022-12-12T12:59:49.302Z,13.77
2022-12-12T13:02:27.295Z,14.15
2022-12-12T13:05:07.229Z,9.18
2022-12-12T13:07:46.808Z,12.05
2022-12-12T13:10:21.871Z,12.48
2022-12-12T13:12:55.005Z,13.10
2022-12-12T13:15:26.951Z,10.60
2022-12-12T13:18:01.511Z,12.73
2022-12-12T13:20:34.824Z,10.68
2022-12-12T13:23:21.062Z,15.25
2022-12-12T13:25:57.905Z,10.43
2022-12-12T13:28:30.510Z,12.45
2022-12-12T13:31:27.718Z,10.82
2022-12-12T13:33:58.476Z,10.77
2022-12-12T13:36:32.983Z,10.68
2022-12-12T13:39:03.657Z,12.27
2022-12-12T13:41:57.123Z,13.38
2022-12-12T13:44:46.873Z,9.73
2022-12-12T13:47:48.301Z,10.15
2022-12-12T13:50:23.362Z,12.68
2022-12-12T13:53:21.178Z,11.27
2022-12-12T13:55:50.553Z,13.25
2022-12-12T13:58:35.576Z,10.60
2022-12-12T14:01:33.871Z,11.82
2022-12-12T14:04:03.483Z,8.07
2022-12-12T14:06:32.122Z,13.43
2022-12-12T14:09:00.365Z,11.05
2022-12-12T14:11:34.093Z,14.95
2022-12-12T14:14:19.780Z,12.30
2022-12-12T14:16:54.272Z,11.48
2022-12-12T14:19:29.847Z,10.35
2022-12-12T14:21:58.010Z,12.40
2022-12-12T14:24:54.580Z,10.20
2022-12-12T14:27:55.850Z,14.65
2022-12-12T14:30:32.348Z,11.68
2022-12-12T14:34:00.883Z,8.55
2022-12-12T14:37:10.173Z,10.30
2022-12-12T14:40:00.434Z,8.70
2022-12-12T14:43:21.116Z,9.43
2022-12-12T14:45:36.670Z,9.35
2022-12-12T14:48:25.153Z,8.35
2022-12-12T14:51:01.898Z,8.90
2022-12-12T14:53:34.605Z,12.02
2022-12-12T14:56:05.084Z,9.43
2022-12-12T14:58:37.564Z,9.18
2022-12-12T15:01:08.064Z,9.45
2022-12-12T15:03:40.140Z,10.77
2022-12-12T15:06:36.971Z,11.30
2022-12-12T15:09:29.109Z,13.35
2022-12-12T15:12:13.254Z,9.48
2022-12-12T15:14:52.649Z,8.63
2022-12-12T15:17:25.297Z,9.93
2022-12-12T15:19:56.584Z,9.00
2022-12-12T15:22:27.203Z,9.95
2022-12-12T15:24:56.479Z,11.15
2022-12-12T15:27:31.962Z,11.38
2022-12-12T15:30:01.736Z,9.10
2022-12-12T15:32:31.534Z,12.98
2022-12-12T15:35:07.257Z,13.70
2022-12-12T15:37:36.733Z,14.93
2022-12-12T15:40:19.991Z,10.32
2022-12-12T15:42:52.541Z,10.75
2022-12-12T15:45:26.581Z,11.40
2022-12-12T15:47:57.293Z,15.48
2022-12-12T15:50:28.426Z,11.75
2022-12-12T15:53:03.714Z,20.80
2022-12-12T15:55:32.977Z,12.75
2022-12-12T15:58:01.177Z,14.60
2022-12-12T16:00:33.926Z,19.65
2022-12-12T16:03:06.444Z,42.17
2022-12-12T16:05:36.864Z,26.17
2022-12-12T16:08:31.427Z,27.98
2022-12-12T16:11:01.869Z,30.08
2022-12-12T16:13:36.975Z,29.65
2022-12-12T16:16:34.819Z,21.13
2022-12-12T16:19:05.575Z,18.33
2022-12-12T16:21:36.603Z,20.73
2022-12-12T16:24:13.425Z,24.27
2022-12-12T16:26:41.411Z,22.95
2022-12-12T16:29:09.360Z,21.45
2022-12-12T16:31:37.960Z,18.10
2022-12-12T16:34:07.418Z,17.80
2022-12-12T16:36:41.716Z,23.95
2022-12-12T16:39:13.714Z,25.35
2022-12-12T16:41:42.157Z,19.17
2022-12-12T16:44:10.159Z,19.70
2022-12-12T16:46:38.266Z,23.02
2022-12-12T16:49:15.110Z,17.70
2022-12-12T16:51:43.605Z,20.55
2022-12-12T16:54:16.825Z,40.10
2022-12-12T16:56:50.436Z,23.85
2022-12-12T16:59:18.524Z,18.40
2022-12-12T17:01:46.873Z,30.65
2022-12-12T17:04:22.063Z,33.88
2022-12-12T17:06:50.685Z,45.35
2022-12-12T17:09:19.270Z,47.30
2022-12-12T17:11:48.007Z,43.53
2022-12-12T17:14:21.004Z,43.53
2022-12-12T17:16:49.274Z,33.55
2022-12-12T17:19:18.755Z,40.13
2022-12-12T17:21:47.076Z,38.67
2022-12-12T17:24:16.407Z,41.22
2022-12-12T17:26:44.466Z,34.35
2022-12-12T17:29:12.571Z,34.13
2022-12-12T17:31:41.305Z,34.65
2022-12-12T17:34:09.292Z,26.45
2022-12-12T17:36:38.671Z,43.50
2022-12-12T17:39:06.718Z,46.28
2022-12-12T17:41:34.756Z,40.65
2022-12-12T17:44:02.751Z,35.50
2022-12-12T17:46:30.742Z,36.15
2022-12-12T17:48:59.705Z,35.08
2022-12-12T17:51:27.784Z,24.08
2022-12-12T17:53:59.715Z,26.35
2022-12-12T17:56:28.247Z,31.05
2022-12-12T17:58:56.946Z,30.52
2022-12-12T18:01:29.251Z,31.70
2022-12-12T18:03:57.543Z,31.02
2022-12-12T18:06:27.307Z,22.65
2022-12-12T18:08:58.147Z,31.77
2022-12-12T18:11:28.021Z,24.63
2022-12-12T18:13:57.757Z,26.98
2022-12-12T18:16:27.402Z,33.22
2022-12-12T18:18:57.243Z,33.95
2022-12-12T18:21:59.244Z,24.30
2022-12-12T18:24:19.117Z,25.25
2022-12-12T18:26:47.913Z,19.70
2022-12-12T18:29:15.908Z,20.88
2022-12-12T18:31:44.245Z,23.92
2022-12-12T18:34:12.383Z,25.17
2022-12-12T18:36:40.854Z,24.17
2022-12-12T18:39:09.581Z,22.40
2022-12-12T18:41:39.535Z,21.75
2022-12-12T18:44:11.742Z,19.77
2022-12-12T18:46:43.148Z,23.38
2022-12-12T18:49:15.264Z,23.08
2022-12-12T18:51:44.543Z,19.55
2022-12-12T18:54:16.099Z,19.50
2022-12-12T18:56:47.248Z,18.95
2022-12-12T18:59:16.461Z,22.70
2022-12-12T19:01:48.010Z,20.77
2022-12-12T19:04:22.821Z,23.58
2022-12-12T19:06:53.335Z,20.98
2022-12-12T19:09:22.283Z,18.50
2022-12-12T19:11:58.335Z,22.55
2022-12-12T19:14:45.758Z,20.42
2022-12-12T19:17:23.581Z,20.80
2022-12-12T19:19:54.040Z,19.48
2022-12-12T19:25:42.547Z,26.02
2022-12-12T19:28:12.544Z,19.23
2022-12-12T19:30:41.302Z,28.13
2022-12-12T19:33:09.521Z,24.08
2022-12-12T19:35:38.253Z,21.42
2022-12-12T19:38:06.351Z,25.60
2022-12-12T19:40:34.419Z,27.95
2022-12-12T19:43:03.183Z,23.73
2022-12-12T19:45:32.803Z,21.88
2022-12-12T19:48:01.041Z,22.90
2022-12-12T19:50:29.194Z,21.08
2022-12-12T19:52:57.337Z,20.67
2022-12-12T19:55:25.510Z,19.67
2022-12-12T19:57:53.571Z,23.17
2022-12-12T20:00:25.971Z,23.45
2022-12-12T20:02:55.336Z,21.55
2022-12-12T20:05:23.449Z,19.83
2022-12-12T20:07:51.648Z,28.05
2022-12-12T20:10:19.943Z,22.83
2022-12-12T20:12:57.889Z,26.13
2022-12-12T20:15:26.902Z,27.08
2022-12-12T20:18:00.071Z,22.77
2022-12-12T20:20:28.719Z,23.88
2022-12-12T20:22:56.723Z,30.85
2022-12-12T20:25:25.337Z,25.00
2022-12-12T20:27:53.355Z,30.60
2022-12-12T20:30:21.592Z,26.60
2022-12-12T20:32:49.631Z,21.70
2022-12-12T20:35:19.185Z,22.17
2022-12-12T20:37:47.250Z,22.45
2022-12-12T20:40:15.604Z,27.77
2022-12-12T20:42:46.301Z,28.45
2022-12-12T20:45:18.532Z,28.55
2022-12-12T20:47:46.680Z,22.77
2022-12-12T20:50:14.804Z,26.27
2022-12-12T20:52:44.230Z,21.45
2022-12-12T20:55:12.645Z,27.95
2022-12-12T20:57:41.832Z,25.48
2022-12-12T21:00:11.570Z,23.50
2022-12-12T21:02:40.887Z,27.77
2022-12-12T21:05:09.913Z,64.03
2022-12-12T21:07:38.245Z,59.00
2022-12-12T21:10:08.513Z,59.63
2022-12-12T21:12:36.651Z,46.58
2022-12-12T21:15:05.090Z,47.72
2022-12-12T21:17:33.363Z,36.85
2022-12-12T21:20:06.371Z,32.50
2022-12-12T21:22:35.186Z,32.47
2022-12-12T21:25:03.270Z,29.48
2022-12-12T21:27:33.436Z,32.80
2022-12-12T21:30:01.843Z,33.10
2022-12-12T21:32:29.910Z,31.58
2022-12-12T21:34:58.513Z,29.73
2022-12-12T21:37:26.608Z,27.88
2022-12-12T21:39:54.875Z,28.38
2022-12-12T21:42:22.905Z,28.92
2022-12-12T21:44:52.630Z,34.15
2022-12-12T21:47:20.751Z,23.30
2022-12-12T21:49:48.748Z,32.47
2022-12-12T21:52:16.948Z,29.33
2022-12-12T21:54:46.432Z,34.58
2022-12-12T21:57:14.597Z,28.85
2022-12-12T21:59:42.879Z,25.17
2022-12-12T22:02:14.556Z,28.17
2022-12-12T22:04:42.708Z,36.53
2022-12-12T22:07:12.084Z,30.77
2022-12-12T22:09:40.365Z,27.55
2022-12-12T22:12:09.191Z,26.92
2022-12-12T22:14:37.726Z,25.45
2022-12-12T22:17:06.602Z,25.42
2022-12-12T22:19:35.996Z,28.15
2022-12-12T22:22:04.087Z,27.75
2022-12-12T22:24:32.267Z,23.05
2022-12-12T22:27:00.341Z,25.83
2022-12-12T22:29:29.001Z,26.08
2022-12-12T22:31:57.086Z,25.17
2022-12-12T22:34:26.001Z,26.63
2022-12-12T22:36:55.864Z,26.67
2022-12-12T22:39:25.861Z,26.90
2022-12-12T22:41:55.577Z,25.20
2022-12-12T22:44:25.108Z,30.75
2022-12-12T22:46:59.984Z,24.58
2022-12-12T22:49:29.173Z,22.75
2022-12-12T22:51:59.159Z,23.75
2022-12-12T22:54:27.482Z,32.42
2022-12-12T22:56:55.935Z,28.15
2022-12-12T22:59:25.180Z,30.75
2022-12-12T23:01:53.230Z,25.40
2022-12-12T23:04:21.475Z,26.05
2022-12-12T23:06:49.623Z,30.80
2022-12-12T23:09:21.928Z,26.17
2022-12-12T23:11:50.406Z,26.13
2022-12-12T23:14:21.548Z,22.23
2022-12-12T23:16:50.489Z,24.45
2022-12-12T23:19:20.759Z,28.05
2022-12-12T23:21:52.155Z,28.98
2022-12-12T23:24:21.586Z,29.27
2022-12-12T23:26:51.811Z,29.77
2022-12-12T23:29:20.307Z,31.70
2022-12-12T23:31:49.419Z,31.77
2022-12-12T23:34:20.698Z,32.25
2022-12-12T23:36:49.185Z,28.58
2022-12-12T23:39:17.353Z,30.92
2022-12-12T23:41:46.855Z,32.10
2022-12-12T23:44:16.248Z,29.00
2022-12-12T23:46:44.953Z,34.90
2022-12-12T23:49:16.736Z,30.20
2022-12-12T23:51:46.255Z,32.58
2022-12-12T23:54:17.035Z,32.30
2022-12-12T23:56:47.086Z,26.95
2022-12-12T23:59:17.823Z,28.25
